sensor_id;sensor_type;location;lat;lon;timestamp;P1;durP1;ratioP1;P2;durP2;ratioP2
69414;SDS011;56608;43.530;-5.652;2023-02-28T00:00:02;8.05;;;2.95;;
69414;SDS011;56608;43.530;-5.652;2023-02-28T00:01:14;5.57;;;2.55;;
69414;SDS011;56608;43.530;-5.652;2023-02-28T00:02:16;8.32;;;2.60;;
69414;SDS011;56608;43.530;-5.652;2023-02-28T00:03:18;10.00;;;2.70;;
69414;SDS011;56608;43.530;-5.652;2023-02-28T00:04:20;9.75;;;2.85;;
69414;SDS011;56608;43.530;-5.652;2023-02-28T00:05:22;9.13;;;2.55;;
69414;SDS011;56608;43.530;-5.652;2023-02-28T00:06:25;7.47;;;2.72;;
69414;SDS011;56608;43.530;-5.652;2023-02-28T00:08:28;7.97;;;3.00;;
69414;SDS011;56608;43.530;-5.652;2023-02-28T00:09:29;7.18;;;2.83;;
69414;SDS011;56608;43.530;-5.652;2023-02-28T00:10:31;10.13;;;2.47;;
69414;SDS011;56608;43.530;-5.652;2023-02-28T00:11:33;8.65;;;2.80;;
69414;SDS011;56608;43.530;-5.652;2023-02-28T00:12:34;12.63;;;2.50;;
69414;SDS011;56608;43.530;-5.652;2023-02-28T00:13:38;9.05;;;2.60;;
69414;SDS011;56608;43.530;-5.652;2023-02-28T00:14:41;7.32;;;2.70;;
69414;SDS011;56608;43.530;-5.652;2023-02-28T00:15:42;11.02;;;2.60;;
69414;SDS011;56608;43.530;-5.652;2023-02-28T00:16:45;7.57;;;2.97;;
69414;SDS011;56608;43.530;-5.652;2023-02-28T00:17:46;8.15;;;2.45;;
69414;SDS011;56608;43.530;-5.652;2023-02-28T00:18:48;8.65;;;2.35;;
69414;SDS011;56608;43.530;-5.652;2023-02-28T00:19:50;12.10;;;2.15;;
69414;SDS011;56608;43.530;-5.652;2023-02-28T00:20:52;5.57;;;2.00;;
69414;SDS011;56608;43.530;-5.652;2023-02-28T00:21:52;9.17;;;2.70;;
69414;SDS011;56608;43.530;-5.652;2023-02-28T00:22:54;6.75;;;1.98;;
69414;SDS011;56608;43.530;-5.652;2023-02-28T00:23:56;5.25;;;1.90;;
69414;SDS011;56608;43.530;-5.652;2023-02-28T00:24:57;5.93;;;2.15;;
69414;SDS011;56608;43.530;-5.652;2023-02-28T00:25:59;7.90;;;2.72;;
69414;SDS011;56608;43.530;-5.652;2023-02-28T00:27:00;10.98;;;3.30;;
69414;SDS011;56608;43.530;-5.652;2023-02-28T00:28:01;6.45;;;2.80;;
69414;SDS011;56608;43.530;-5.652;2023-02-28T00:29:02;7.30;;;2.40;;
69414;SDS011;56608;43.530;-5.652;2023-02-28T00:30:04;7.68;;;2.30;;
69414;SDS011;56608;43.530;-5.652;2023-02-28T00:31:08;6.72;;;2.30;;
69414;SDS011;56608;43.530;-5.652;2023-02-28T00:32:10;5.60;;;2.33;;
69414;SDS011;56608;43.530;-5.652;2023-02-28T00:33:11;9.40;;;2.62;;
69414;SDS011;56608;43.530;-5.652;2023-02-28T00:34:13;8.35;;;2.72;;
69414;SDS011;56608;43.530;-5.652;2023-02-28T00:35:14;13.55;;;2.87;;
69414;SDS011;56608;43.530;-5.652;2023-02-28T00:36:16;8.60;;;2.80;;
69414;SDS011;56608;43.530;-5.652;2023-02-28T00:37:17;8.82;;;3.25;;
69414;SDS011;56608;43.530;-5.652;2023-02-28T00:38:18;8.90;;;3.00;;
69414;SDS011;56608;43.530;-5.652;2023-02-28T00:39:20;11.02;;;2.53;;
69414;SDS011;56608;43.530;-5.652;2023-02-28T00:40:21;6.62;;;2.15;;
69414;SDS011;56608;43.530;-5.652;2023-02-28T00:41:22;8.53;;;2.37;;
69414;SDS011;56608;43.530;-5.652;2023-02-28T00:42:24;9.10;;;2.53;;
69414;SDS011;56608;43.530;-5.652;2023-02-28T00:43:25;8.25;;;2.42;;
69414;SDS011;56608;43.530;-5.652;2023-02-28T00:44:27;9.10;;;2.90;;
69414;SDS011;56608;43.530;-5.652;2023-02-28T00:45:29;6.15;;;2.35;;
69414;SDS011;56608;43.530;-5.652;2023-02-28T00:47:30;4.40;;;1.90;;
69414;SDS011;56608;43.530;-5.652;2023-02-28T00:48:32;8.80;;;2.37;;
69414;SDS011;56608;43.530;-5.652;2023-02-28T00:49:34;5.05;;;1.80;;
69414;SDS011;56608;43.530;-5.652;2023-02-28T00:50:35;7.70;;;2.30;;
69414;SDS011;56608;43.530;-5.652;2023-02-28T00:51:36;9.35;;;2.20;;
69414;SDS011;56608;43.530;-5.652;2023-02-28T00:52:37;6.80;;;1.90;;
69414;SDS011;56608;43.530;-5.652;2023-02-28T00:53:39;7.95;;;2.30;;
69414;SDS011;56608;43.530;-5.652;2023-02-28T00:54:40;5.97;;;2.45;;
69414;SDS011;56608;43.530;-5.652;2023-02-28T00:55:41;10.00;;;2.30;;
69414;SDS011;56608;43.530;-5.652;2023-02-28T00:56:42;8.15;;;2.10;;
69414;SDS011;56608;43.530;-5.652;2023-02-28T00:57:43;5.40;;;2.30;;
69414;SDS011;56608;43.530;-5.652;2023-02-28T00:58:45;8.32;;;2.55;;
69414;SDS011;56608;43.530;-5.652;2023-02-28T00:59:46;7.43;;;2.70;;
69414;SDS011;56608;43.530;-5.652;2023-02-28T01:00:48;7.57;;;2.50;;
69414;SDS011;56608;43.530;-5.652;2023-02-28T01:01:49;10.70;;;2.47;;
69414;SDS011;56608;43.530;-5.652;2023-02-28T01:02:51;11.43;;;2.22;;
69414;SDS011;56608;43.530;-5.652;2023-02-28T01:03:52;7.57;;;2.35;;
69414;SDS011;56608;43.530;-5.652;2023-02-28T01:04:52;5.67;;;2.23;;
69414;SDS011;56608;43.530;-5.652;2023-02-28T01:05:54;10.82;;;2.45;;
69414;SDS011;56608;43.530;-5.652;2023-02-28T01:06:56;4.57;;;1.98;;
69414;SDS011;56608;43.530;-5.652;2023-02-28T01:07:57;5.87;;;2.58;;
69414;SDS011;56608;43.530;-5.652;2023-02-28T01:08:59;10.82;;;2.60;;
69414;SDS011;56608;43.530;-5.652;2023-02-28T01:10:01;10.02;;;2.40;;
69414;SDS011;56608;43.530;-5.652;2023-02-28T01:11:09;7.72;;;2.12;;
69414;SDS011;56608;43.530;-5.652;2023-02-28T01:12:12;6.82;;;2.55;;
69414;SDS011;56608;43.530;-5.652;2023-02-28T01:13:14;9.40;;;2.60;;
69414;SDS011;56608;43.530;-5.652;2023-02-28T01:14:16;8.60;;;2.30;;
69414;SDS011;56608;43.530;-5.652;2023-02-28T01:15:18;6.43;;;2.40;;
69414;SDS011;56608;43.530;-5.652;2023-02-28T01:16:20;8.35;;;2.62;;
69414;SDS011;56608;43.530;-5.652;2023-02-28T01:17:21;4.90;;;2.20;;
69414;SDS011;56608;43.530;-5.652;2023-02-28T01:18:22;9.30;;;2.40;;
69414;SDS011;56608;43.530;-5.652;2023-02-28T01:19:24;8.13;;;2.40;;
69414;SDS011;56608;43.530;-5.652;2023-02-28T01:20:25;7.82;;;3.00;;
69414;SDS011;56608;43.530;-5.652;2023-02-28T01:21:26;6.05;;;2.37;;
69414;SDS011;56608;43.530;-5.652;2023-02-28T01:22:28;7.57;;;2.45;;
69414;SDS011;56608;43.530;-5.652;2023-02-28T01:23:29;7.93;;;2.55;;
69414;SDS011;56608;43.530;-5.652;2023-02-28T01:24:30;10.30;;;2.70;;
69414;SDS011;56608;43.530;-5.652;2023-02-28T01:25:34;9.45;;;2.42;;
69414;SDS011;56608;43.530;-5.652;2023-02-28T01:26:36;10.27;;;2.75;;
69414;SDS011;56608;43.530;-5.652;2023-02-28T01:27:36;6.93;;;2.37;;
69414;SDS011;56608;43.530;-5.652;2023-02-28T01:28:40;7.47;;;2.47;;
69414;SDS011;56608;43.530;-5.652;2023-02-28T01:29:42;8.63;;;2.58;;
69414;SDS011;56608;43.530;-5.652;2023-02-28T01:30:47;8.43;;;2.65;;
69414;SDS011;56608;43.530;-5.652;2023-02-28T01:31:49;6.25;;;2.83;;
69414;SDS011;56608;43.530;-5.652;2023-02-28T01:32:50;7.07;;;2.78;;
69414;SDS011;56608;43.530;-5.652;2023-02-28T01:33:54;5.78;;;2.50;;
69414;SDS011;56608;43.530;-5.652;2023-02-28T01:34:55;9.48;;;2.97;;
69414;SDS011;56608;43.530;-5.652;2023-02-28T01:35:59;12.97;;;3.00;;
69414;SDS011;56608;43.530;-5.652;2023-02-28T01:37:01;6.43;;;2.70;;
69414;SDS011;56608;43.530;-5.652;2023-02-28T01:38:04;6.80;;;2.50;;
69414;SDS011;56608;43.530;-5.652;2023-02-28T01:39:05;8.82;;;2.78;;
69414;SDS011;56608;43.530;-5.652;2023-02-28T01:40:07;7.50;;;2.55;;
69414;SDS011;56608;43.530;-5.652;2023-02-28T01:41:10;9.88;;;2.90;;
69414;SDS011;56608;43.530;-5.652;2023-02-28T01:42:16;10.65;;;3.00;;
69414;SDS011;56608;43.530;-5.652;2023-02-28T01:43:27;10.60;;;2.47;;
69414;SDS011;56608;43.530;-5.652;2023-02-28T01:46:13;7.97;;;2.37;;
69414;SDS011;56608;43.530;-5.652;2023-02-28T01:47:15;7.40;;;2.40;;
69414;SDS011;56608;43.530;-5.652;2023-02-28T01:48:16;10.35;;;3.00;;
69414;SDS011;56608;43.530;-5.652;2023-02-28T01:49:18;7.47;;;2.22;;
69414;SDS011;56608;43.530;-5.652;2023-02-28T01:50:22;8.52;;;2.62;;
69414;SDS011;56608;43.530;-5.652;2023-02-28T01:51:31;8.65;;;2.75;;
69414;SDS011;56608;43.530;-5.652;2023-02-28T01:52:38;6.47;;;2.30;;
69414;SDS011;56608;43.530;-5.652;2023-02-28T01:53:45;10.48;;;2.60;;
69414;SDS011;56608;43.530;-5.652;2023-02-28T01:54:53;7.10;;;2.15;;
69414;SDS011;56608;43.530;-5.652;2023-02-28T01:55:56;5.40;;;2.10;;
69414;SDS011;56608;43.530;-5.652;2023-02-28T01:57:07;7.13;;;2.03;;
69414;SDS011;56608;43.530;-5.652;2023-02-28T01:58:18;7.60;;;2.27;;
69414;SDS011;56608;43.530;-5.652;2023-02-28T01:59:25;9.27;;;2.67;;
69414;SDS011;56608;43.530;-5.652;2023-02-28T02:00:30;8.38;;;2.70;;
69414;SDS011;56608;43.530;-5.652;2023-02-28T02:01:32;8.90;;;2.67;;
69414;SDS011;56608;43.530;-5.652;2023-02-28T02:02:33;8.60;;;2.80;;
69414;SDS011;56608;43.530;-5.652;2023-02-28T02:03:35;9.07;;;2.33;;
69414;SDS011;56608;43.530;-5.652;2023-02-28T02:05:45;4.95;;;2.15;;
69414;SDS011;56608;43.530;-5.652;2023-02-28T02:06:50;6.20;;;2.47;;
69414;SDS011;56608;43.530;-5.652;2023-02-28T02:08:55;11.10;;;2.30;;
69414;SDS011;56608;43.530;-5.652;2023-02-28T02:11:17;6.75;;;2.20;;
69414;SDS011;56608;43.530;-5.652;2023-02-28T02:12:24;8.88;;;2.78;;
69414;SDS011;56608;43.530;-5.652;2023-02-28T02:15:18;8.60;;;2.25;;
69414;SDS011;56608;43.530;-5.652;2023-02-28T02:16:34;7.90;;;2.10;;
69414;SDS011;56608;43.530;-5.652;2023-02-28T02:17:45;6.03;;;2.00;;
69414;SDS011;56608;43.530;-5.652;2023-02-28T02:18:53;7.50;;;2.30;;
69414;SDS011;56608;43.530;-5.652;2023-02-28T02:24:19;5.40;;;2.50;;
69414;SDS011;56608;43.530;-5.652;2023-02-28T02:25:48;8.55;;;2.65;;
69414;SDS011;56608;43.530;-5.652;2023-02-28T02:27:03;6.10;;;2.37;;
69414;SDS011;56608;43.530;-5.652;2023-02-28T02:36:36;17.73;;;2.67;;
69414;SDS011;56608;43.530;-5.652;2023-02-28T02:42:03;13.88;;;4.20;;
69414;SDS011;56608;43.530;-5.652;2023-02-28T02:43:33;12.77;;;4.47;;
69414;SDS011;56608;43.530;-5.652;2023-02-28T02:44:40;17.25;;;5.12;;
69414;SDS011;56608;43.530;-5.652;2023-02-28T02:46:50;20.30;;;6.53;;
69414;SDS011;56608;43.530;-5.652;2023-02-28T02:47:56;15.85;;;6.95;;
69414;SDS011;56608;43.530;-5.652;2023-02-28T02:49:00;14.45;;;6.05;;
69414;SDS011;56608;43.530;-5.652;2023-02-28T02:50:07;18.10;;;7.22;;
69414;SDS011;56608;43.530;-5.652;2023-02-28T02:51:14;17.35;;;6.97;;
69414;SDS011;56608;43.530;-5.652;2023-02-28T02:52:18;13.80;;;6.25;;
69414;SDS011;56608;43.530;-5.652;2023-02-28T02:53:30;19.20;;;7.37;;
69414;SDS011;56608;43.530;-5.652;2023-02-28T02:54:40;17.65;;;7.20;;
69414;SDS011;56608;43.530;-5.652;2023-02-28T02:55:45;21.17;;;8.05;;
69414;SDS011;56608;43.530;-5.652;2023-02-28T02:56:54;15.88;;;6.15;;
69414;SDS011;56608;43.530;-5.652;2023-02-28T02:57:59;14.43;;;6.32;;
69414;SDS011;56608;43.530;-5.652;2023-02-28T02:59:06;18.37;;;7.12;;
69414;SDS011;56608;43.530;-5.652;2023-02-28T03:00:11;15.80;;;6.35;;
69414;SDS011;56608;43.530;-5.652;2023-02-28T03:01:16;15.90;;;7.20;;
69414;SDS011;56608;43.530;-5.652;2023-02-28T03:02:28;16.62;;;7.00;;
69414;SDS011;56608;43.530;-5.652;2023-02-28T03:03:35;15.63;;;6.50;;
69414;SDS011;56608;43.530;-5.652;2023-02-28T03:04:38;18.50;;;6.50;;
69414;SDS011;56608;43.530;-5.652;2023-02-28T03:05:46;16.92;;;6.18;;
69414;SDS011;56608;43.530;-5.652;2023-02-28T03:06:50;16.73;;;5.22;;
69414;SDS011;56608;43.530;-5.652;2023-02-28T03:07:55;15.35;;;5.47;;
69414;SDS011;56608;43.530;-5.652;2023-02-28T03:08:56;13.20;;;5.30;;
69414;SDS011;56608;43.530;-5.652;2023-02-28T03:09:58;15.30;;;4.87;;
69414;SDS011;56608;43.530;-5.652;2023-02-28T03:11:00;12.55;;;4.50;;
69414;SDS011;56608;43.530;-5.652;2023-02-28T03:12:04;11.98;;;4.97;;
69414;SDS011;56608;43.530;-5.652;2023-02-28T03:19:13;14.85;;;5.70;;
69414;SDS011;56608;43.530;-5.652;2023-02-28T03:24:18;15.77;;;5.72;;
69414;SDS011;56608;43.530;-5.652;2023-02-28T03:25:27;15.40;;;5.95;;
69414;SDS011;56608;43.530;-5.652;2023-02-28T03:26:30;20.00;;;6.65;;
69414;SDS011;56608;43.530;-5.652;2023-02-28T03:27:41;21.50;;;6.12;;
69414;SDS011;56608;43.530;-5.652;2023-02-28T03:29:13;15.38;;;6.60;;
69414;SDS011;56608;43.530;-5.652;2023-02-28T03:31:58;17.08;;;6.28;;
69414;SDS011;56608;43.530;-5.652;2023-02-28T03:33:19;16.15;;;5.80;;
69414;SDS011;56608;43.530;-5.652;2023-02-28T03:35:33;13.95;;;5.85;;
69414;SDS011;56608;43.530;-5.652;2023-02-28T03:36:39;17.10;;;6.30;;
69414;SDS011;56608;43.530;-5.652;2023-02-28T03:37:46;13.25;;;5.90;;
69414;SDS011;56608;43.530;-5.652;2023-02-28T03:38:52;12.27;;;5.35;;
69414;SDS011;56608;43.530;-5.652;2023-02-28T03:39:59;19.30;;;5.50;;
69414;SDS011;56608;43.530;-5.652;2023-02-28T03:41:06;10.30;;;4.55;;
69414;SDS011;56608;43.530;-5.652;2023-02-28T03:42:15;14.70;;;5.50;;
69414;SDS011;56608;43.530;-5.652;2023-02-28T03:43:23;17.10;;;5.70;;
69414;SDS011;56608;43.530;-5.652;2023-02-28T03:44:32;15.77;;;5.40;;
69414;SDS011;56608;43.530;-5.652;2023-02-28T03:45:39;13.23;;;5.28;;
69414;SDS011;56608;43.530;-5.652;2023-02-28T03:46:48;15.60;;;5.60;;
69414;SDS011;56608;43.530;-5.652;2023-02-28T03:47:58;14.77;;;5.70;;
69414;SDS011;56608;43.530;-5.652;2023-02-28T03:49:02;13.18;;;5.30;;
69414;SDS011;56608;43.530;-5.652;2023-02-28T03:51:17;15.00;;;4.70;;
69414;SDS011;56608;43.530;-5.652;2023-02-28T03:52:24;12.52;;;5.25;;
69414;SDS011;56608;43.530;-5.652;2023-02-28T03:53:30;18.05;;;5.32;;
69414;SDS011;56608;43.530;-5.652;2023-02-28T03:54:38;12.63;;;5.00;;
69414;SDS011;56608;43.530;-5.652;2023-02-28T03:55:52;16.23;;;5.12;;
69414;SDS011;56608;43.530;-5.652;2023-02-28T03:57:03;11.43;;;4.43;;
69414;SDS011;56608;43.530;-5.652;2023-02-28T03:59:47;12.43;;;4.72;;
69414;SDS011;56608;43.530;-5.652;2023-02-28T04:01:16;15.02;;;5.15;;
69414;SDS011;56608;43.530;-5.652;2023-02-28T04:02:24;12.20;;;4.95;;
69414;SDS011;56608;43.530;-5.652;2023-02-28T04:03:26;12.80;;;4.45;;
69414;SDS011;56608;43.530;-5.652;2023-02-28T04:04:27;16.08;;;4.72;;
69414;SDS011;56608;43.530;-5.652;2023-02-28T04:05:29;16.92;;;5.35;;
69414;SDS011;56608;43.530;-5.652;2023-02-28T04:06:32;12.10;;;4.72;;
69414;SDS011;56608;43.530;-5.652;2023-02-28T04:07:34;12.73;;;4.68;;
69414;SDS011;56608;43.530;-5.652;2023-02-28T04:08:35;15.75;;;5.00;;
69414;SDS011;56608;43.530;-5.652;2023-02-28T04:09:37;14.35;;;4.75;;
69414;SDS011;56608;43.530;-5.652;2023-02-28T04:11:40;13.80;;;4.70;;
69414;SDS011;56608;43.530;-5.652;2023-02-28T04:12:43;9.35;;;4.07;;
69414;SDS011;56608;43.530;-5.652;2023-02-28T04:13:44;12.88;;;4.85;;
69414;SDS011;56608;43.530;-5.652;2023-02-28T04:14:46;13.07;;;4.32;;
69414;SDS011;56608;43.530;-5.652;2023-02-28T04:15:47;12.25;;;5.20;;
69414;SDS011;56608;43.530;-5.652;2023-02-28T04:16:49;13.60;;;4.55;;
69414;SDS011;56608;43.530;-5.652;2023-02-28T04:17:51;10.13;;;3.83;;
69414;SDS011;56608;43.530;-5.652;2023-02-28T04:18:53;10.10;;;4.30;;
69414;SDS011;56608;43.530;-5.652;2023-02-28T04:19:53;15.20;;;4.80;;
69414;SDS011;56608;43.530;-5.652;2023-02-28T04:21:00;12.65;;;4.50;;
69414;SDS011;56608;43.530;-5.652;2023-02-28T04:22:01;10.75;;;3.85;;
69414;SDS011;56608;43.530;-5.652;2023-02-28T04:23:02;11.60;;;5.07;;
69414;SDS011;56608;43.530;-5.652;2023-02-28T04:24:04;11.88;;;4.78;;
69414;SDS011;56608;43.530;-5.652;2023-02-28T04:25:06;12.98;;;4.65;;
69414;SDS011;56608;43.530;-5.652;2023-02-28T04:27:09;11.60;;;4.30;;
69414;SDS011;56608;43.530;-5.652;2023-02-28T04:28:10;9.65;;;4.60;;
69414;SDS011;56608;43.530;-5.652;2023-02-28T04:29:12;11.70;;;4.47;;
69414;SDS011;56608;43.530;-5.652;2023-02-28T04:30:15;16.45;;;4.65;;
69414;SDS011;56608;43.530;-5.652;2023-02-28T04:32:18;13.93;;;4.62;;
69414;SDS011;56608;43.530;-5.652;2023-02-28T04:33:19;12.50;;;4.10;;
69414;SDS011;56608;43.530;-5.652;2023-02-28T04:34:20;13.70;;;4.20;;
69414;SDS011;56608;43.530;-5.652;2023-02-28T04:35:22;10.82;;;4.05;;
69414;SDS011;56608;43.530;-5.652;2023-02-28T04:36:23;11.48;;;4.40;;
69414;SDS011;56608;43.530;-5.652;2023-02-28T04:37:24;12.90;;;3.70;;
69414;SDS011;56608;43.530;-5.652;2023-02-28T04:38:30;12.00;;;4.18;;
69414;SDS011;56608;43.530;-5.652;2023-02-28T04:39:35;13.65;;;3.90;;
69414;SDS011;56608;43.530;-5.652;2023-02-28T04:40:37;8.98;;;3.22;;
69414;SDS011;56608;43.530;-5.652;2023-02-28T04:41:37;12.37;;;3.47;;
69414;SDS011;56608;43.530;-5.652;2023-02-28T04:42:39;9.88;;;3.40;;
69414;SDS011;56608;43.530;-5.652;2023-02-28T04:43:41;8.07;;;2.75;;
69414;SDS011;56608;43.530;-5.652;2023-02-28T04:44:42;9.55;;;3.30;;
69414;SDS011;56608;43.530;-5.652;2023-02-28T04:45:43;10.88;;;3.60;;
69414;SDS011;56608;43.530;-5.652;2023-02-28T04:46:45;8.90;;;3.42;;
69414;SDS011;56608;43.530;-5.652;2023-02-28T04:47:49;14.55;;;3.60;;
69414;SDS011;56608;43.530;-5.652;2023-02-28T04:48:50;11.90;;;3.70;;
69414;SDS011;56608;43.530;-5.652;2023-02-28T04:49:51;11.80;;;3.30;;
69414;SDS011;56608;43.530;-5.652;2023-02-28T04:50:53;14.87;;;3.72;;
69414;SDS011;56608;43.530;-5.652;2023-02-28T04:51:54;9.70;;;4.30;;
69414;SDS011;56608;43.530;-5.652;2023-02-28T04:52:56;12.93;;;3.30;;
69414;SDS011;56608;43.530;-5.652;2023-02-28T04:53:58;13.65;;;3.35;;
69414;SDS011;56608;43.530;-5.652;2023-02-28T04:54:59;9.07;;;3.40;;
69414;SDS011;56608;43.530;-5.652;2023-02-28T04:56:01;10.25;;;3.35;;
69414;SDS011;56608;43.530;-5.652;2023-02-28T04:58:03;11.25;;;2.80;;
69414;SDS011;56608;43.530;-5.652;2023-02-28T04:59:05;12.23;;;3.22;;
69414;SDS011;56608;43.530;-5.652;2023-02-28T05:00:05;15.47;;;3.63;;
69414;SDS011;56608;43.530;-5.652;2023-02-28T05:02:46;8.13;;;2.83;;
69414;SDS011;56608;43.530;-5.652;2023-02-28T05:03:47;11.43;;;3.22;;
69414;SDS011;56608;43.530;-5.652;2023-02-28T05:04:49;11.77;;;3.45;;
69414;SDS011;56608;43.530;-5.652;2023-02-28T05:05:51;8.10;;;3.03;;
69414;SDS011;56608;43.530;-5.652;2023-02-28T05:06:52;9.00;;;3.20;;
69414;SDS011;56608;43.530;-5.652;2023-02-28T05:07:53;7.20;;;2.70;;
69414;SDS011;56608;43.530;-5.652;2023-02-28T05:08:56;9.70;;;3.42;;
69414;SDS011;56608;43.530;-5.652;2023-02-28T05:09:58;8.13;;;2.67;;
69414;SDS011;56608;43.530;-5.652;2023-02-28T05:11:00;9.75;;;2.72;;
69414;SDS011;56608;43.530;-5.652;2023-02-28T05:12:02;8.65;;;3.40;;
69414;SDS011;56608;43.530;-5.652;2023-02-28T05:13:04;10.15;;;3.62;;
69414;SDS011;56608;43.530;-5.652;2023-02-28T05:14:06;12.70;;;3.40;;
69414;SDS011;56608;43.530;-5.652;2023-02-28T05:15:13;9.02;;;3.08;;
69414;SDS011;56608;43.530;-5.652;2023-02-28T05:16:16;10.27;;;3.40;;
69414;SDS011;56608;43.530;-5.652;2023-02-28T05:17:18;15.38;;;3.67;;
69414;SDS011;56608;43.530;-5.652;2023-02-28T05:18:18;11.55;;;2.90;;
69414;SDS011;56608;43.530;-5.652;2023-02-28T05:19:20;13.30;;;3.42;;
69414;SDS011;56608;43.530;-5.652;2023-02-28T05:22:32;8.35;;;3.05;;
69414;SDS011;56608;43.530;-5.652;2023-02-28T05:23:33;8.52;;;2.95;;
69414;SDS011;56608;43.530;-5.652;2023-02-28T05:24:35;7.45;;;3.15;;
69414;SDS011;56608;43.530;-5.652;2023-02-28T05:25:36;10.20;;;3.10;;
69414;SDS011;56608;43.530;-5.652;2023-02-28T05:26:39;11.10;;;3.60;;
69414;SDS011;56608;43.530;-5.652;2023-02-28T05:27:41;12.95;;;4.00;;
69414;SDS011;56608;43.530;-5.652;2023-02-28T05:28:43;13.55;;;3.60;;
69414;SDS011;56608;43.530;-5.652;2023-02-28T05:29:44;7.05;;;3.58;;
69414;SDS011;56608;43.530;-5.652;2023-02-28T05:30:46;12.32;;;3.53;;
69414;SDS011;56608;43.530;-5.652;2023-02-28T05:32:50;9.90;;;3.40;;
69414;SDS011;56608;43.530;-5.652;2023-02-28T05:33:52;11.65;;;3.40;;
69414;SDS011;56608;43.530;-5.652;2023-02-28T05:34:53;12.25;;;3.40;;
69414;SDS011;56608;43.530;-5.652;2023-02-28T05:35:55;11.80;;;3.65;;
69414;SDS011;56608;43.530;-5.652;2023-02-28T05:36:57;11.82;;;4.35;;
69414;SDS011;56608;43.530;-5.652;2023-02-28T05:37:58;9.43;;;3.67;;
69414;SDS011;56608;43.530;-5.652;2023-02-28T05:39:00;9.73;;;3.03;;
69414;SDS011;56608;43.530;-5.652;2023-02-28T05:40:02;12.40;;;3.37;;
69414;SDS011;56608;43.530;-5.652;2023-02-28T05:41:07;12.93;;;3.45;;
69414;SDS011;56608;43.530;-5.652;2023-02-28T05:42:10;12.23;;;3.42;;
69414;SDS011;56608;43.530;-5.652;2023-02-28T05:43:11;11.00;;;3.75;;
69414;SDS011;56608;43.530;-5.652;2023-02-28T05:44:13;11.70;;;3.80;;
69414;SDS011;56608;43.530;-5.652;2023-02-28T05:45:13;12.10;;;3.60;;
69414;SDS011;56608;43.530;-5.652;2023-02-28T05:46:15;7.62;;;3.35;;
69414;SDS011;56608;43.530;-5.652;2023-02-28T05:47:17;10.55;;;3.20;;
69414;SDS011;56608;43.530;-5.652;2023-02-28T05:48:17;10.30;;;3.45;;
69414;SDS011;56608;43.530;-5.652;2023-02-28T05:49:19;8.73;;;3.12;;
69414;SDS011;56608;43.530;-5.652;2023-02-28T05:50:20;11.15;;;3.60;;
69414;SDS011;56608;43.530;-5.652;2023-02-28T05:51:22;10.23;;;2.58;;
69414;SDS011;56608;43.530;-5.652;2023-02-28T05:52:23;9.95;;;2.85;;
69414;SDS011;56608;43.530;-5.652;2023-02-28T05:53:25;7.95;;;3.17;;
69414;SDS011;56608;43.530;-5.652;2023-02-28T05:54:27;11.85;;;3.35;;
69414;SDS011;56608;43.530;-5.652;2023-02-28T05:55:28;11.30;;;3.30;;
69414;SDS011;56608;43.530;-5.652;2023-02-28T05:56:29;7.53;;;2.78;;
69414;SDS011;56608;43.530;-5.652;2023-02-28T05:57:31;12.15;;;3.20;;
69414;SDS011;56608;43.530;-5.652;2023-02-28T05:58:32;10.25;;;3.33;;
69414;SDS011;56608;43.530;-5.652;2023-02-28T05:59:35;14.55;;;3.03;;
69414;SDS011;56608;43.530;-5.652;2023-02-28T06:00:40;8.20;;;3.20;;
69414;SDS011;56608;43.530;-5.652;2023-02-28T06:01:42;7.22;;;3.08;;
69414;SDS011;56608;43.530;-5.652;2023-02-28T06:02:51;10.00;;;3.15;;
69414;SDS011;56608;43.530;-5.652;2023-02-28T06:03:58;10.90;;;3.70;;
69414;SDS011;56608;43.530;-5.652;2023-02-28T06:05:02;9.02;;;3.05;;
69414;SDS011;56608;43.530;-5.652;2023-02-28T06:06:04;11.40;;;3.15;;
69414;SDS011;56608;43.530;-5.652;2023-02-28T06:07:05;15.15;;;3.15;;
69414;SDS011;56608;43.530;-5.652;2023-02-28T06:08:08;8.35;;;2.97;;
69414;SDS011;56608;43.530;-5.652;2023-02-28T06:09:09;7.20;;;2.80;;
69414;SDS011;56608;43.530;-5.652;2023-02-28T06:10:11;10.98;;;3.20;;
69414;SDS011;56608;43.530;-5.652;2023-02-28T06:11:12;9.18;;;3.00;;
69414;SDS011;56608;43.530;-5.652;2023-02-28T06:12:14;8.32;;;3.37;;
69414;SDS011;56608;43.530;-5.652;2023-02-28T06:13:15;7.62;;;2.65;;
69414;SDS011;56608;43.530;-5.652;2023-02-28T06:14:17;11.12;;;3.15;;
69414;SDS011;56608;43.530;-5.652;2023-02-28T06:15:20;11.60;;;3.12;;
69414;SDS011;56608;43.530;-5.652;2023-02-28T06:16:22;10.60;;;3.00;;
69414;SDS011;56608;43.530;-5.652;2023-02-28T06:17:24;7.87;;;2.67;;
69414;SDS011;56608;43.530;-5.652;2023-02-28T06:18:24;11.90;;;3.50;;
69414;SDS011;56608;43.530;-5.652;2023-02-28T06:19:26;9.00;;;3.03;;
69414;SDS011;56608;43.530;-5.652;2023-02-28T06:20:28;6.75;;;2.85;;
69414;SDS011;56608;43.530;-5.652;2023-02-28T06:21:30;8.77;;;3.22;;
69414;SDS011;56608;43.530;-5.652;2023-02-28T06:22:32;7.22;;;2.92;;
69414;SDS011;56608;43.530;-5.652;2023-02-28T06:23:33;8.65;;;3.22;;
69414;SDS011;56608;43.530;-5.652;2023-02-28T06:24:34;9.95;;;3.10;;
69414;SDS011;56608;43.530;-5.652;2023-02-28T06:25:36;8.70;;;3.23;;
69414;SDS011;56608;43.530;-5.652;2023-02-28T06:26:37;10.68;;;3.30;;
69414;SDS011;56608;43.530;-5.652;2023-02-28T06:27:39;8.43;;;3.17;;
69414;SDS011;56608;43.530;-5.652;2023-02-28T06:28:40;9.27;;;2.45;;
69414;SDS011;56608;43.530;-5.652;2023-02-28T06:29:42;9.18;;;3.03;;
69414;SDS011;56608;43.530;-5.652;2023-02-28T06:30:43;10.18;;;2.90;;
69414;SDS011;56608;43.530;-5.652;2023-02-28T06:31:45;10.95;;;2.80;;
69414;SDS011;56608;43.530;-5.652;2023-02-28T06:32:47;9.18;;;2.97;;
69414;SDS011;56608;43.530;-5.652;2023-02-28T06:33:50;7.20;;;2.80;;
69414;SDS011;56608;43.530;-5.652;2023-02-28T06:34:51;10.70;;;3.50;;
69414;SDS011;56608;43.530;-5.652;2023-02-28T06:35:53;6.03;;;2.65;;
69414;SDS011;56608;43.530;-5.652;2023-02-28T06:36:56;6.95;;;2.97;;
69414;SDS011;56608;43.530;-5.652;2023-02-28T06:37:57;7.95;;;2.97;;
69414;SDS011;56608;43.530;-5.652;2023-02-28T06:38:59;12.50;;;3.22;;
69414;SDS011;56608;43.530;-5.652;2023-02-28T06:40:00;9.07;;;2.80;;
69414;SDS011;56608;43.530;-5.652;2023-02-28T06:41:01;7.25;;;2.60;;
69414;SDS011;56608;43.530;-5.652;2023-02-28T06:42:03;9.05;;;2.62;;
69414;SDS011;56608;43.530;-5.652;2023-02-28T06:43:04;11.07;;;2.83;;
69414;SDS011;56608;43.530;-5.652;2023-02-28T06:44:05;10.30;;;2.80;;
69414;SDS011;56608;43.530;-5.652;2023-02-28T06:45:13;8.30;;;3.00;;
69414;SDS011;56608;43.530;-5.652;2023-02-28T06:46:15;10.90;;;3.15;;
69414;SDS011;56608;43.530;-5.652;2023-02-28T06:47:16;9.57;;;3.00;;
69414;SDS011;56608;43.530;-5.652;2023-02-28T06:48:17;8.88;;;2.92;;
69414;SDS011;56608;43.530;-5.652;2023-02-28T06:49:19;12.95;;;3.17;;
69414;SDS011;56608;43.530;-5.652;2023-02-28T06:50:21;8.20;;;2.70;;
69414;SDS011;56608;43.530;-5.652;2023-02-28T06:51:21;6.50;;;2.75;;
69414;SDS011;56608;43.530;-5.652;2023-02-28T06:52:23;10.60;;;2.90;;
69414;SDS011;56608;43.530;-5.652;2023-02-28T06:53:25;9.87;;;3.00;;
69414;SDS011;56608;43.530;-5.652;2023-02-28T06:54:26;8.37;;;2.90;;
69414;SDS011;56608;43.530;-5.652;2023-02-28T06:56:29;7.72;;;2.62;;
69414;SDS011;56608;43.530;-5.652;2023-02-28T06:57:30;6.35;;;2.45;;
69414;SDS011;56608;43.530;-5.652;2023-02-28T06:58:32;5.43;;;2.60;;
69414;SDS011;56608;43.530;-5.652;2023-02-28T06:59:34;10.80;;;2.50;;
69414;SDS011;56608;43.530;-5.652;2023-02-28T07:00:37;5.30;;;2.45;;
69414;SDS011;56608;43.530;-5.652;2023-02-28T07:01:39;7.35;;;2.65;;
69414;SDS011;56608;43.530;-5.652;2023-02-28T07:02:41;9.43;;;2.42;;
69414;SDS011;56608;43.530;-5.652;2023-02-28T07:03:42;4.78;;;2.33;;
69414;SDS011;56608;43.530;-5.652;2023-02-28T07:04:44;8.50;;;2.67;;
69414;SDS011;56608;43.530;-5.652;2023-02-28T07:05:45;6.55;;;2.90;;